Terminal Aerodrome Forecast
Issued by NWS

Home | Current Version | Previous Version | Text Only | Print | Product List | Glossary On
Versions: 1 2 3 4 5 6 7 8 9 10 11 12 13 14 15 16 17
000
FTAK31 PANC 221740
TAFADU
TAF
PADU 221740Z 2218/2318 35012G27KT P6SM -SHRA SCT008 OVC015
     FM222300 34015G25KT 6SM BR VCSH BKN015 OVC025
     FM230600 33015G25KT 6SM -SHRA BR SCT015 BKN025 OVC050=

USA.gov is the U.S. government's official web portal to all federal, state and local government web resources and services.